Lismore Airport
YLIS : rendu visible

Aérodrome :











RETROUVEZ-NOUS SUR...

 
LOGIN :

S'inscrire | Disclaimer

   EN    FR    IT 

 









Légende :    VFR   VFR Marginal   IFR   IFR Intensif   IFR Très Intensif
Visi : 
Plafond : 
>= 8 km
>= 3000ft
5 à 8 km
1000 à 3000 ft
1500m à 5 km
500 à 1000 ft
800 à 1500m
200 à 500 ft
< 800m
< 200 ft
Symboles :   Orages  Brouillard  Fortes neiges  Fortes précipitations  Vent > 20 kt






- Altitude de l'aérodrome : 35 ft
- Code IATA : LSY


YLIS - Lismore

DERNIER METAR :
  • 020500Z AUTO 27014KT 9999 // NCD 19/M00 Q1015

METARs EXPIRÉS :
  • 020430Z AUTO 28017G27KT 9999 // NCD 19/00 Q1015
  • 020426Z AUTO 28016G27KT 9999 // NCD 19/M00 Q1014
  • 020400Z AUTO 28015KT 9999 // NCD 19/01 Q1015
  • 020300Z AUTO 28013KT 9999 // NCD 18/00 Q1015

TAF N/A
FIR YBBB / Océanie



MET'MAP, la Météo Aéronautique d'un coup d'oeil ! - Copyright ORBIFLY Décembre 2007 - Disclaimer

ORBIFLY MET'MAP TEAM :

Programmation & Développement : Alexandra Zaïnal
Sur une idée originale de : Baudouin d'Aumeries
Assistance à la programmation : Marc-Olivier Méhu
Soutien technique & logistique : Manuel Goepfert

Contact : metmap@orbifly.com




SOURCES & CREDITS :

   NOAA       Earth
Advisory